createdAt,value
2018-06-19T00:04:35.805Z,79.80
2018-06-19T00:09:32.390Z,79.60
2018-06-19T00:12:00.738Z,79.70
2018-06-19T00:16:57.559Z,79.20
2018-06-19T00:19:27.005Z,79.40
2018-06-19T00:26:52.827Z,79.30
2018-06-19T00:29:21.217Z,79.50
2018-06-19T00:34:17.712Z,79.40
2018-06-19T00:36:46.070Z,79.40
2018-06-19T00:39:14.555Z,79.40
2018-06-19T00:41:42.967Z,79.30
2018-06-19T00:44:11.945Z,79.50
2018-06-19T00:49:09.645Z,79.60
2018-06-19T00:51:37.999Z,79.60
2018-06-19T00:56:55.444Z,79.20
2018-06-19T01:01:52.528Z,79.30
2018-06-19T01:04:20.861Z,79.40
2018-06-19T01:06:49.266Z,79.40
2018-06-19T01:11:45.697Z,78.90
2018-06-19T01:14:14.132Z,79.10
2018-06-19T01:16:42.493Z,79.20
2018-06-19T01:19:10.899Z,79.10
2018-06-19T01:21:39.358Z,78.80
2018-06-19T01:24:07.741Z,77.90
2018-06-19T01:26:36.101Z,78.50
2018-06-19T01:29:04.532Z,78.80
2018-06-19T01:31:32.890Z,78.70
2018-06-19T01:34:01.286Z,78.70
2018-06-19T01:36:29.686Z,78.50
2018-06-19T01:38:58.044Z,78.30
2018-06-19T01:41:26.391Z,78.50
2018-06-19T01:43:54.771Z,77.70
2018-06-19T01:46:23.139Z,78.40
2018-06-19T01:48:51.485Z,78.70
2018-06-19T01:51:19.886Z,78.80
2018-06-19T01:58:44.417Z,78.50
2018-06-19T02:01:12.784Z,78.60
2018-06-19T02:03:41.088Z,77.20
2018-06-19T02:06:09.452Z,77.70
2018-06-19T02:11:05.864Z,76.90
2018-06-19T02:13:34.230Z,77.40
2018-06-19T02:16:02.573Z,77.70
2018-06-19T02:23:27.076Z,77.10
2018-06-19T02:30:51.651Z,77.60
2018-06-19T02:33:20.080Z,78.20
2018-06-19T02:38:16.673Z,78.50
2018-06-19T02:40:45.027Z,78.50
2018-06-19T02:43:13.780Z,78.60
2018-06-19T02:45:42.060Z,78.50
2018-06-19T02:48:10.435Z,78.20
2018-06-19T02:50:38.797Z,78.30
2018-06-19T02:53:07.217Z,77.30
2018-06-19T02:58:03.739Z,77.30
2018-06-19T03:00:32.135Z,78.10
2018-06-19T03:03:00.489Z,77.30
2018-06-19T03:05:28.948Z,77.90
2018-06-19T03:10:25.356Z,78.90
2018-06-19T03:15:21.854Z,79.20
2018-06-19T03:17:50.207Z,79.00
2018-06-19T03:22:46.710Z,79.30
2018-06-19T03:25:15.050Z,79.70
2018-06-19T03:27:43.505Z,78.40
2018-06-19T03:30:11.872Z,79.20
2018-06-19T03:32:40.209Z,79.60
2018-06-19T03:35:08.627Z,80.10
2018-06-19T03:40:05.052Z,80.10
2018-06-19T03:42:33.432Z,80.20
2018-06-19T03:45:01.783Z,80.10
2018-06-19T03:47:30.122Z,80.10
2018-06-19T03:52:26.585Z,79.30
2018-06-19T03:54:54.975Z,78.50
2018-06-19T03:57:23.352Z,77.70
2018-06-19T03:59:51.684Z,78.70
2018-06-19T04:02:20.026Z,79.50
2018-06-19T04:04:48.399Z,79.70
2018-06-19T04:07:16.819Z,79.80
2018-06-19T04:09:45.199Z,78.80
2018-06-19T04:12:13.749Z,79.30
2018-06-19T04:14:42.574Z,78.40
2018-06-19T04:17:16.104Z,77.70
2018-06-19T04:19:44.493Z,78.80
2018-06-19T04:22:12.844Z,77.90
2018-06-19T04:27:09.344Z,78.60
2018-06-19T04:29:37.709Z,79.40
2018-06-19T04:32:06.052Z,79.70
2018-06-19T04:37:02.534Z,80.20
2018-06-19T04:39:30.881Z,80.30
2018-06-19T04:41:59.276Z,80.20
2018-06-19T04:44:27.572Z,80.40
2018-06-19T04:46:55.974Z,80.60
2018-06-19T04:49:24.401Z,80.70
2018-06-19T04:54:20.868Z,80.70
2018-06-19T04:56:49.274Z,80.70
2018-06-19T04:59:17.665Z,80.50
2018-06-19T05:01:46.084Z,80.20
2018-06-19T05:04:14.614Z,80.10
2018-06-19T05:06:43.050Z,79.90
2018-06-19T05:09:15.023Z,79.80
2018-06-19T05:14:13.255Z,80.10
2018-06-19T05:16:42.250Z,80.30
2018-06-19T05:19:11.092Z,80.30
2018-06-19T05:21:39.490Z,80.20
2018-06-19T05:26:36.031Z,80.70
2018-06-19T05:29:04.403Z,80.80
2018-06-19T05:31:32.778Z,81.10
2018-06-19T05:34:01.260Z,81.20
2018-06-19T05:36:29.637Z,80.70
2018-06-19T05:38:58.027Z,81.30
2018-06-19T05:41:26.433Z,79.90
2018-06-19T05:43:54.771Z,80.40
2018-06-19T05:46:24.595Z,81.10
2018-06-19T05:51:21.039Z,80.00
2018-06-19T05:53:49.442Z,81.40
2018-06-19T06:01:14.103Z,83.10
2018-06-19T06:03:45.430Z,84.00
2018-06-19T06:06:13.826Z,85.10
2018-06-19T06:11:10.409Z,88.80
2018-06-19T06:13:38.756Z,89.20
2018-06-19T06:18:35.240Z,89.90
2018-06-19T06:21:03.641Z,88.80
2018-06-19T06:23:32.015Z,89.40
2018-06-19T06:26:00.418Z,89.80
2018-06-19T06:30:56.880Z,89.40
2018-06-19T06:38:21.694Z,89.70
2018-06-19T06:40:50.068Z,89.80
2018-06-19T06:48:14.661Z,89.40
2018-06-19T06:50:43.055Z,89.10
2018-06-19T06:53:11.457Z,89.50
2018-06-19T07:00:36.150Z,88.10
2018-06-19T07:03:04.587Z,87.40
2018-06-19T07:08:01.144Z,87.30
2018-06-19T07:10:29.485Z,87.30
2018-06-19T07:15:26.126Z,86.60
2018-06-19T07:17:54.553Z,87.00
2018-06-19T07:20:22.955Z,87.00
2018-06-19T07:22:51.720Z,84.80
2018-06-19T07:27:48.314Z,86.00
2018-06-19T07:30:16.630Z,85.80
2018-06-19T07:35:13.158Z,86.30
2018-06-19T07:37:41.578Z,86.20
2018-06-19T07:42:38.162Z,88.80
2018-06-19T07:45:06.553Z,87.70
2018-06-19T07:47:35.636Z,87.30
2018-06-19T07:50:04.183Z,86.90
2018-06-19T07:55:00.803Z,87.50
2018-06-19T07:57:29.228Z,87.40
2018-06-19T07:59:57.703Z,87.00
2018-06-19T08:04:54.199Z,83.80
2018-06-19T08:07:22.663Z,84.10
2018-06-19T08:09:51.036Z,84.50
2018-06-19T08:12:19.487Z,85.20
2018-06-19T08:19:44.276Z,85.30
2018-06-19T08:22:13.820Z,84.50
2018-06-19T08:27:10.438Z,84.70
2018-06-19T08:29:38.783Z,84.40
2018-06-19T08:32:07.337Z,85.30
2018-06-19T08:37:03.894Z,85.80
2018-06-19T08:42:00.392Z,86.60
2018-06-19T08:44:28.807Z,87.70
2018-06-19T08:46:57.242Z,88.20
2018-06-19T08:49:25.737Z,87.90
2018-06-19T08:51:54.235Z,86.20
2018-06-19T08:54:22.674Z,86.50
2018-06-19T08:59:19.160Z,87.60
2018-06-19T09:01:47.543Z,87.80
2018-06-19T09:04:16.026Z,88.50
2018-06-19T09:06:44.527Z,89.60
2018-06-19T09:09:13.051Z,91.00
2018-06-19T09:11:41.490Z,90.40
2018-06-19T09:14:09.941Z,90.80
2018-06-19T09:16:38.340Z,90.70
2018-06-19T09:19:06.818Z,90.00
2018-06-19T09:21:35.302Z,90.30
2018-06-19T09:24:03.660Z,90.50
2018-06-19T09:26:32.082Z,90.80
2018-06-19T09:29:00.485Z,90.90
2018-06-19T09:36:25.190Z,90.80
2018-06-19T09:41:21.735Z,90.20
2018-06-19T09:43:50.164Z,87.20
2018-06-19T09:46:18.560Z,87.10
2018-06-19T09:48:46.962Z,88.10
2018-06-19T09:51:15.486Z,87.90
2018-06-19T09:56:12.087Z,88.20
2018-06-19T09:58:40.510Z,88.80
2018-06-19T10:03:37.138Z,86.80
2018-06-19T10:06:05.574Z,86.20
2018-06-19T10:08:33.975Z,85.30
2018-06-19T10:11:02.365Z,82.90
2018-06-19T10:13:30.817Z,82.00
2018-06-19T10:15:59.192Z,83.60
2018-06-19T10:20:55.745Z,82.30
2018-06-19T10:23:24.123Z,81.90
2018-06-19T10:25:52.522Z,81.50
2018-06-19T10:28:21.037Z,79.90
2018-06-19T10:30:49.443Z,78.70
2018-06-19T10:35:47.374Z,79.70
2018-06-19T10:38:15.771Z,79.00
2018-06-19T10:40:44.176Z,78.90
2018-06-19T10:43:12.589Z,79.00
2018-06-19T10:45:40.997Z,77.90
2018-06-19T10:48:09.371Z,77.80
2018-06-19T10:50:37.815Z,77.90
2018-06-19T10:55:35.777Z,78.40
2018-06-19T10:58:04.283Z,78.30
2018-06-19T11:03:00.853Z,79.00
2018-06-19T11:05:29.243Z,77.60
2018-06-19T11:07:57.694Z,76.50
2018-06-19T11:12:54.143Z,78.30
2018-06-19T11:17:50.686Z,79.30
2018-06-19T11:20:19.162Z,78.80
2018-06-19T11:22:47.552Z,79.00
2018-06-19T11:27:44.201Z,78.30
2018-06-19T11:30:12.661Z,78.40
2018-06-19T11:32:41.169Z,77.10
2018-06-19T11:37:37.763Z,74.80
2018-06-19T11:40:06.190Z,74.60
2018-06-19T11:42:34.654Z,72.10
2018-06-19T11:45:03.070Z,70.80
2018-06-19T11:47:31.469Z,67.80
2018-06-19T11:54:56.125Z,68.10
2018-06-19T11:57:24.549Z,69.90
2018-06-19T12:02:21.114Z,69.20
2018-06-19T12:09:45.806Z,68.70
2018-06-19T12:12:14.728Z,68.70
2018-06-19T12:14:44.861Z,69.30
2018-06-19T12:19:41.978Z,69.00
2018-06-19T12:22:10.402Z,68.70
2018-06-19T12:27:07.109Z,69.30
2018-06-19T12:29:35.562Z,69.60
2018-06-19T12:34:32.055Z,70.00
2018-06-19T12:37:00.473Z,71.10
2018-06-19T12:41:57.070Z,70.50
2018-06-19T12:44:25.450Z,71.40
2018-06-19T12:46:53.929Z,71.30
2018-06-19T12:55:43.184Z,69.70
2018-06-19T12:58:14.003Z,67.70
2018-06-19T13:00:42.411Z,67.20
2018-06-19T13:06:34.846Z,65.20
2018-06-19T13:09:03.357Z,64.60
2018-06-19T13:17:24.915Z,61.90
2018-06-19T13:20:29.779Z,59.00
2018-06-19T13:22:58.188Z,60.90
2018-06-19T13:25:26.604Z,60.20
2018-06-19T13:30:59.899Z,56.30
2018-06-19T13:33:28.378Z,51.20
2018-06-19T13:35:56.744Z,42.90
2018-06-19T13:38:25.206Z,36.10
2018-06-19T13:41:30.771Z,32.60
2018-06-19T13:44:35.421Z,34.10
2018-06-19T13:47:04.787Z,35.00
2018-06-19T13:49:33.249Z,35.90
2018-06-19T13:54:29.774Z,37.40
2018-06-19T13:57:35.864Z,37.50
2018-06-19T14:02:37.569Z,40.50
2018-06-19T14:05:06.768Z,41.90
2018-06-19T14:07:53.905Z,43.90
2018-06-19T14:10:58.732Z,45.70
2018-06-19T14:13:27.131Z,47.30
2018-06-19T14:15:55.531Z,49.30
2018-06-19T14:18:23.924Z,49.90
2018-06-19T14:20:52.363Z,50.40
2018-06-19T14:23:20.701Z,49.10
2018-06-19T14:30:45.313Z,50.80
2018-06-19T14:38:09.918Z,51.60
2018-06-19T14:40:38.264Z,52.20
2018-06-19T14:43:06.680Z,51.80
2018-06-19T14:45:35.070Z,50.10
2018-06-19T14:48:03.412Z,50.20
2018-06-19T14:50:31.807Z,49.60
2018-06-19T14:53:00.194Z,50.30
2018-06-19T14:55:28.596Z,51.20
2018-06-19T15:00:25.213Z,48.50
2018-06-19T15:02:53.570Z,45.40
2018-06-19T15:05:22.025Z,43.30
2018-06-19T15:07:54.600Z,43.60
2018-06-19T15:10:23.408Z,44.50
2018-06-19T15:12:51.872Z,46.00
2018-06-19T15:20:16.577Z,48.40
2018-06-19T15:22:44.995Z,48.90
2018-06-19T15:25:13.371Z,49.40
2018-06-19T15:27:41.808Z,48.00
2018-06-19T15:30:10.212Z,49.00
2018-06-19T15:32:38.585Z,49.50
2018-06-19T15:35:07.077Z,50.10
2018-06-19T15:37:35.441Z,50.50
2018-06-19T15:40:03.873Z,51.00
2018-06-19T15:42:32.327Z,50.80
2018-06-19T15:45:00.716Z,49.30
2018-06-19T15:49:57.269Z,46.80
2018-06-19T15:54:53.776Z,46.90
2018-06-19T15:57:22.225Z,47.80
2018-06-19T16:02:18.754Z,47.40
2018-06-19T16:07:15.336Z,49.50
2018-06-19T16:09:46.186Z,49.30
2018-06-19T16:12:14.669Z,48.00
2018-06-19T16:14:43.086Z,48.80
2018-06-19T16:17:11.509Z,50.10
2018-06-19T16:22:08.033Z,49.80
2018-06-19T16:24:36.538Z,50.80
2018-06-19T16:27:04.989Z,51.00
2018-06-19T16:29:33.392Z,51.20
2018-06-19T16:32:01.818Z,51.50
2018-06-19T16:34:30.244Z,51.70
2018-06-19T16:39:26.834Z,49.40
2018-06-19T16:41:55.222Z,50.90
2018-06-19T16:44:23.627Z,52.40
2018-06-19T16:46:52.074Z,52.50
2018-06-19T16:49:20.561Z,53.10
2018-06-19T16:51:49.018Z,53.10
2018-06-19T16:54:17.459Z,53.70
2018-06-19T16:56:45.864Z,54.20
2018-06-19T17:01:42.436Z,53.00
2018-06-19T17:04:10.900Z,52.80
2018-06-19T17:11:37.119Z,54.30
2018-06-19T17:14:05.825Z,54.40
2018-06-19T17:16:34.215Z,54.50
2018-06-19T17:21:30.825Z,52.80
2018-06-19T17:23:59.500Z,53.80
2018-06-19T17:26:28.014Z,54.10
2018-06-19T17:28:56.416Z,54.50
2018-06-19T17:31:24.839Z,54.80
2018-06-19T17:33:53.232Z,53.80
2018-06-19T17:36:23.177Z,54.70
2018-06-19T17:38:51.610Z,55.30
2018-06-19T17:41:20.034Z,54.90
2018-06-19T17:43:48.404Z,53.80
2018-06-19T17:46:16.844Z,54.30
2018-06-19T17:48:45.337Z,54.70
2018-06-19T17:51:13.730Z,54.60
2018-06-19T17:53:42.226Z,54.70
2018-06-19T17:56:11.749Z,54.90
2018-06-19T17:58:40.154Z,55.50
2018-06-19T18:01:08.576Z,56.30
2018-06-19T18:03:38.550Z,55.50
2018-06-19T18:08:35.036Z,52.30
2018-06-19T18:11:03.457Z,52.90
2018-06-19T18:13:31.897Z,52.80
2018-06-19T18:16:00.281Z,52.50
2018-06-19T18:18:29.770Z,52.90
2018-06-19T18:20:58.162Z,53.90
2018-06-19T18:23:26.565Z,54.80
2018-06-19T18:25:57.861Z,55.30
2018-06-19T18:28:25.994Z,55.90
2018-06-19T18:30:54.352Z,54.90
2018-06-19T18:33:22.899Z,55.80
2018-06-19T18:35:51.611Z,56.20
2018-06-19T18:38:20.053Z,56.40
2018-06-19T18:43:16.605Z,57.00
2018-06-19T18:48:13.238Z,56.50
2018-06-19T18:50:41.684Z,57.30
2018-06-19T18:55:38.644Z,58.10
2018-06-19T19:00:35.129Z,58.70
2018-06-19T19:03:03.686Z,59.00
2018-06-19T19:08:00.285Z,59.30
2018-06-19T19:10:46.634Z,59.50
2018-06-19T19:16:04.238Z,60.00
2018-06-19T19:18:51.682Z,60.40
2018-06-19T19:21:20.145Z,60.30
2018-06-19T19:23:48.635Z,60.10
2018-06-19T19:29:08.790Z,60.00
2018-06-19T19:31:37.158Z,60.70
2018-06-19T19:36:51.842Z,60.90
2018-06-19T19:44:29.885Z,60.50
2018-06-19T19:47:16.052Z,61.30
2018-06-19T19:49:44.566Z,61.60
2018-06-19T19:54:42.259Z,60.80
2018-06-19T19:59:56.964Z,63.20
2018-06-19T20:02:26.497Z,62.80
2018-06-19T20:04:56.182Z,63.10
2018-06-19T20:07:24.716Z,62.80
2018-06-19T20:14:51.240Z,63.50
2018-06-19T20:17:19.956Z,63.70
2018-06-19T20:19:48.401Z,63.50
2018-06-19T20:22:16.889Z,63.90
2018-06-19T20:24:45.397Z,64.40
2018-06-19T20:27:14.331Z,64.30
2018-06-19T20:29:53.220Z,64.40
2018-06-19T20:32:21.722Z,64.80
2018-06-19T20:34:50.158Z,65.00
2018-06-19T20:37:18.630Z,65.00
2018-06-19T20:39:47.115Z,65.10
2018-06-19T20:42:15.560Z,65.30
2018-06-19T20:44:44.068Z,65.50
2018-06-19T20:47:12.489Z,65.50
2018-06-19T20:49:40.893Z,65.70
2018-06-19T20:54:37.640Z,65.90
2018-06-19T20:57:05.995Z,65.80
2018-06-19T20:59:34.432Z,65.70
2018-06-19T21:04:30.934Z,65.00
2018-06-19T21:06:59.410Z,65.80
2018-06-19T21:09:27.848Z,65.20
2018-06-19T21:11:56.328Z,65.80
2018-06-19T21:14:24.779Z,65.10
2018-06-19T21:21:49.717Z,67.50
2018-06-19T21:26:46.303Z,67.70
2018-06-19T21:29:14.890Z,67.90
2018-06-19T21:31:43.362Z,67.80
2018-06-19T21:34:11.743Z,67.60
2018-06-19T21:36:40.209Z,66.60
2018-06-19T21:39:09.595Z,67.40
2018-06-19T21:44:09.035Z,68.50
2018-06-19T21:46:37.452Z,67.90
2018-06-19T21:49:05.803Z,68.00
2018-06-19T21:51:34.204Z,68.30
2018-06-19T21:54:02.596Z,68.50
2018-06-19T21:56:30.973Z,68.70
2018-06-19T21:58:59.468Z,68.80
2018-06-19T22:01:27.829Z,68.60
2018-06-19T22:03:56.191Z,67.00
2018-06-19T22:06:24.590Z,66.20
2018-06-19T22:08:54.400Z,67.20
2018-06-19T22:11:24.042Z,67.70
2018-06-19T22:13:52.764Z,68.10
2018-06-19T22:16:21.065Z,68.40
2018-06-19T22:18:51.665Z,68.30
2018-06-19T22:21:20.039Z,68.40
2018-06-19T22:26:16.489Z,68.80
2018-06-19T22:28:44.912Z,68.90
2018-06-19T22:31:14.203Z,69.00
2018-06-19T22:33:42.638Z,68.30
2018-06-19T22:36:11.022Z,67.90
2018-06-19T22:41:07.522Z,68.20
2018-06-19T22:46:03.975Z,69.30
2018-06-19T22:48:32.353Z,69.60
2018-06-19T22:51:00.713Z,68.80
2018-06-19T22:53:29.193Z,70.10
2018-06-19T22:55:57.493Z,70.00
2018-06-19T22:58:25.855Z,70.30
2018-06-19T23:00:54.264Z,70.50
2018-06-19T23:03:22.676Z,70.70
2018-06-19T23:08:19.190Z,71.10
2018-06-19T23:10:47.557Z,71.10
2018-06-19T23:13:15.944Z,70.60
2018-06-19T23:15:44.399Z,71.10
2018-06-19T23:18:12.746Z,71.40
2018-06-19T23:23:09.446Z,71.70
2018-06-19T23:25:37.675Z,71.70
2018-06-19T23:33:02.323Z,71.80
2018-06-19T23:35:30.643Z,72.00
2018-06-19T23:37:58.972Z,72.40
2018-06-19T23:42:55.544Z,73.00
2018-06-19T23:45:23.876Z,73.40
2018-06-19T23:47:52.246Z,73.20
2018-06-19T23:50:20.661Z,73.10
2018-06-19T23:52:48.955Z,72.30
2018-06-19T23:55:17.300Z,71.90
